sensor_id;sensor_type;location;lat;lon;timestamp;temperature;humidity
56424;DHT22;42329;43.516;3.684;2022-11-04T00:04:17;12.80;99.90
56424;DHT22;42329;43.516;3.684;2022-11-04T00:06:45;12.80;99.90
56424;DHT22;42329;43.516;3.684;2022-11-04T00:09:15;12.80;99.90
56424;DHT22;42329;43.516;3.684;2022-11-04T00:11:43;12.80;99.90
56424;DHT22;42329;43.516;3.684;2022-11-04T00:14:28;12.80;99.90
56424;DHT22;42329;43.516;3.684;2022-11-04T00:16:56;12.80;99.90
56424;DHT22;42329;43.516;3.684;2022-11-04T00:19:42;12.80;99.90
56424;DHT22;42329;43.516;3.684;2022-11-04T00:22:27;12.80;99.90
56424;DHT22;42329;43.516;3.684;2022-11-04T00:25:12;12.80;99.90
56424;DHT22;42329;43.516;3.684;2022-11-04T00:28:05;12.80;99.90
56424;DHT22;42329;43.516;3.684;2022-11-04T00:30:54;12.90;99.90
56424;DHT22;42329;43.516;3.684;2022-11-04T00:33:21;12.80;99.90
56424;DHT22;42329;43.516;3.684;2022-11-04T00:35:53;12.80;99.90
56424;DHT22;42329;43.516;3.684;2022-11-04T00:38:21;12.90;99.90
56424;DHT22;42329;43.516;3.684;2022-11-04T00:40:49;12.80;99.90
56424;DHT22;42329;43.516;3.684;2022-11-04T00:43:16;12.90;99.90
56424;DHT22;42329;43.516;3.684;2022-11-04T00:45:43;12.90;99.90
56424;DHT22;42329;43.516;3.684;2022-11-04T00:48:11;12.80;99.90
56424;DHT22;42329;43.516;3.684;2022-11-04T00:50:38;12.80;99.90
56424;DHT22;42329;43.516;3.684;2022-11-04T00:53:07;12.70;99.90
56424;DHT22;42329;43.516;3.684;2022-11-04T00:55:34;12.70;99.90
56424;DHT22;42329;43.516;3.684;2022-11-04T00:58:01;12.60;99.90
56424;DHT22;42329;43.516;3.684;2022-11-04T01:00:28;12.60;99.90
56424;DHT22;42329;43.516;3.684;2022-11-04T01:02:56;12.60;99.90
56424;DHT22;42329;43.516;3.684;2022-11-04T01:05:25;12.60;99.90
56424;DHT22;42329;43.516;3.684;2022-11-04T01:07:52;12.60;99.90
56424;DHT22;42329;43.516;3.684;2022-11-04T01:10:21;12.60;99.90
56424;DHT22;42329;43.516;3.684;2022-11-04T01:12:51;12.60;99.90
56424;DHT22;42329;43.516;3.684;2022-11-04T01:15:18;12.60;99.90
56424;DHT22;42329;43.516;3.684;2022-11-04T01:17:45;12.70;99.90
56424;DHT22;42329;43.516;3.684;2022-11-04T01:20:12;12.70;99.90
56424;DHT22;42329;43.516;3.684;2022-11-04T01:22:40;12.60;99.90
56424;DHT22;42329;43.516;3.684;2022-11-04T01:25:08;12.60;99.90
56424;DHT22;42329;43.516;3.684;2022-11-04T01:27:37;12.60;99.90
56424;DHT22;42329;43.516;3.684;2022-11-04T01:30:06;12.60;99.90
56424;DHT22;42329;43.516;3.684;2022-11-04T01:32:33;12.60;99.90
56424;DHT22;42329;43.516;3.684;2022-11-04T01:35:01;12.60;99.90
56424;DHT22;42329;43.516;3.684;2022-11-04T01:37:28;12.70;99.90
56424;DHT22;42329;43.516;3.684;2022-11-04T01:39:55;12.60;99.90
56424;DHT22;42329;43.516;3.684;2022-11-04T01:42:23;12.60;99.90
56424;DHT22;42329;43.516;3.684;2022-11-04T01:44:57;12.60;99.90
56424;DHT22;42329;43.516;3.684;2022-11-04T01:47:31;12.50;99.90
56424;DHT22;42329;43.516;3.684;2022-11-04T01:50:16;12.50;99.90
56424;DHT22;42329;43.516;3.684;2022-11-04T01:52:47;12.50;99.90
56424;DHT22;42329;43.516;3.684;2022-11-04T01:55:17;12.30;99.90
56424;DHT22;42329;43.516;3.684;2022-11-04T01:57:47;12.30;99.90
56424;DHT22;42329;43.516;3.684;2022-11-04T02:00:17;12.30;99.90
56424;DHT22;42329;43.516;3.684;2022-11-04T02:02:50;12.20;99.90
56424;DHT22;42329;43.516;3.684;2022-11-04T02:05:20;12.20;99.90
56424;DHT22;42329;43.516;3.684;2022-11-04T02:07:49;12.20;99.90
56424;DHT22;42329;43.516;3.684;2022-11-04T02:10:19;12.10;99.90
56424;DHT22;42329;43.516;3.684;2022-11-04T02:12:48;12.00;99.90
56424;DHT22;42329;43.516;3.684;2022-11-04T02:15:18;11.90;99.90
56424;DHT22;42329;43.516;3.684;2022-11-04T02:18:07;11.90;99.90
56424;DHT22;42329;43.516;3.684;2022-11-04T02:21:08;11.80;99.90
56424;DHT22;42329;43.516;3.684;2022-11-04T02:24:04;11.80;99.90
56424;DHT22;42329;43.516;3.684;2022-11-04T02:27:02;11.80;99.90
56424;DHT22;42329;43.516;3.684;2022-11-04T02:29:52;11.70;99.90
56424;DHT22;42329;43.516;3.684;2022-11-04T02:32:29;11.70;99.90
56424;DHT22;42329;43.516;3.684;2022-11-04T02:35:02;11.70;99.90
56424;DHT22;42329;43.516;3.684;2022-11-04T02:37:39;11.60;99.90
56424;DHT22;42329;43.516;3.684;2022-11-04T02:40:17;11.50;99.90
56424;DHT22;42329;43.516;3.684;2022-11-04T02:42:53;11.40;99.90
56424;DHT22;42329;43.516;3.684;2022-11-04T02:45:25;11.40;99.90
56424;DHT22;42329;43.516;3.684;2022-11-04T02:48:02;11.40;99.90
56424;DHT22;42329;43.516;3.684;2022-11-04T02:50:34;11.40;99.90
56424;DHT22;42329;43.516;3.684;2022-11-04T02:53:08;11.30;99.90
56424;DHT22;42329;43.516;3.684;2022-11-04T02:55:39;11.30;99.90
56424;DHT22;42329;43.516;3.684;2022-11-04T02:58:12;11.20;99.90
56424;DHT22;42329;43.516;3.684;2022-11-04T03:00:42;11.10;99.90
56424;DHT22;42329;43.516;3.684;2022-11-04T03:03:13;11.10;99.90
56424;DHT22;42329;43.516;3.684;2022-11-04T03:05:44;11.10;99.90
56424;DHT22;42329;43.516;3.684;2022-11-04T03:08:16;11.10;99.90
56424;DHT22;42329;43.516;3.684;2022-11-04T03:10:47;10.80;99.90
56424;DHT22;42329;43.516;3.684;2022-11-04T03:13:19;10.80;99.90
56424;DHT22;42329;43.516;3.684;2022-11-04T03:15:52;10.80;99.90
56424;DHT22;42329;43.516;3.684;2022-11-04T03:18:23;10.50;99.90
56424;DHT22;42329;43.516;3.684;2022-11-04T03:20:57;10.50;99.90
56424;DHT22;42329;43.516;3.684;2022-11-04T03:23:27;10.50;99.90
56424;DHT22;42329;43.516;3.684;2022-11-04T03:25:57;10.50;99.90
56424;DHT22;42329;43.516;3.684;2022-11-04T03:28:36;10.50;99.90
56424;DHT22;42329;43.516;3.684;2022-11-04T03:31:12;10.50;99.90
56424;DHT22;42329;43.516;3.684;2022-11-04T03:33:47;10.40;99.90
56424;DHT22;42329;43.516;3.684;2022-11-04T03:36:15;10.40;99.90
56424;DHT22;42329;43.516;3.684;2022-11-04T03:38:44;10.40;99.90
56424;DHT22;42329;43.516;3.684;2022-11-04T03:41:14;10.40;99.90
56424;DHT22;42329;43.516;3.684;2022-11-04T03:43:42;10.40;99.90
56424;DHT22;42329;43.516;3.684;2022-11-04T03:46:11;10.40;99.90
56424;DHT22;42329;43.516;3.684;2022-11-04T03:48:39;10.40;99.90
56424;DHT22;42329;43.516;3.684;2022-11-04T03:51:09;10.40;99.90
56424;DHT22;42329;43.516;3.684;2022-11-04T03:53:37;10.30;99.90
56424;DHT22;42329;43.516;3.684;2022-11-04T03:56:16;10.30;99.90
56424;DHT22;42329;43.516;3.684;2022-11-04T03:58:53;10.30;99.90
56424;DHT22;42329;43.516;3.684;2022-11-04T04:01:32;10.30;99.90
56424;DHT22;42329;43.516;3.684;2022-11-04T04:04:06;10.30;99.90
56424;DHT22;42329;43.516;3.684;2022-11-04T04:06:35;10.30;99.90
56424;DHT22;42329;43.516;3.684;2022-11-04T04:09:17;10.20;99.90
56424;DHT22;42329;43.516;3.684;2022-11-04T04:11:51;10.10;99.90
56424;DHT22;42329;43.516;3.684;2022-11-04T04:14:24;10.00;99.90
56424;DHT22;42329;43.516;3.684;2022-11-04T04:17:13;10.00;99.90
56424;DHT22;42329;43.516;3.684;2022-11-04T04:19:44;10.00;99.90
56424;DHT22;42329;43.516;3.684;2022-11-04T04:22:16;10.00;99.90
56424;DHT22;42329;43.516;3.684;2022-11-04T04:24:47;9.90;99.90
56424;DHT22;42329;43.516;3.684;2022-11-04T04:27:33;10.00;99.90
56424;DHT22;42329;43.516;3.684;2022-11-04T04:30:04;9.90;99.90
56424;DHT22;42329;43.516;3.684;2022-11-04T04:32:36;9.80;99.90
56424;DHT22;42329;43.516;3.684;2022-11-04T04:35:06;9.80;99.90
56424;DHT22;42329;43.516;3.684;2022-11-04T04:37:52;9.70;99.90
56424;DHT22;42329;43.516;3.684;2022-11-04T04:40:25;9.70;99.90
56424;DHT22;42329;43.516;3.684;2022-11-04T04:43:14;9.70;99.90
56424;DHT22;42329;43.516;3.684;2022-11-04T04:46:00;9.50;99.90
56424;DHT22;42329;43.516;3.684;2022-11-04T04:48:29;9.40;99.90
56424;DHT22;42329;43.516;3.684;2022-11-04T04:50:57;9.40;99.90
56424;DHT22;42329;43.516;3.684;2022-11-04T04:53:27;9.40;99.90
56424;DHT22;42329;43.516;3.684;2022-11-04T04:55:55;9.40;99.90
56424;DHT22;42329;43.516;3.684;2022-11-04T04:58:22;9.40;99.90
56424;DHT22;42329;43.516;3.684;2022-11-04T05:00:49;9.50;99.90
56424;DHT22;42329;43.516;3.684;2022-11-04T05:03:17;9.40;99.90
56424;DHT22;42329;43.516;3.684;2022-11-04T05:05:45;9.40;99.90
56424;DHT22;42329;43.516;3.684;2022-11-04T05:08:13;9.40;99.90
56424;DHT22;42329;43.516;3.684;2022-11-04T05:10:40;9.40;99.90
56424;DHT22;42329;43.516;3.684;2022-11-04T05:13:08;9.50;99.90
56424;DHT22;42329;43.516;3.684;2022-11-04T05:15:56;9.50;99.90
56424;DHT22;42329;43.516;3.684;2022-11-04T05:18:23;9.50;99.90
56424;DHT22;42329;43.516;3.684;2022-11-04T05:20:52;9.40;99.90
56424;DHT22;42329;43.516;3.684;2022-11-04T05:23:19;9.30;99.90
56424;DHT22;42329;43.516;3.684;2022-11-04T05:25:47;9.30;99.90
56424;DHT22;42329;43.516;3.684;2022-11-04T05:28:14;9.30;99.90
56424;DHT22;42329;43.516;3.684;2022-11-04T05:30:41;9.40;99.90
56424;DHT22;42329;43.516;3.684;2022-11-04T05:33:09;9.40;99.90
56424;DHT22;42329;43.516;3.684;2022-11-04T05:35:36;9.40;99.90
56424;DHT22;42329;43.516;3.684;2022-11-04T05:38:05;9.40;99.90
56424;DHT22;42329;43.516;3.684;2022-11-04T05:40:32;9.40;99.90
56424;DHT22;42329;43.516;3.684;2022-11-04T05:42:59;9.40;99.90
56424;DHT22;42329;43.516;3.684;2022-11-04T05:45:28;9.40;99.90
56424;DHT22;42329;43.516;3.684;2022-11-04T05:47:59;9.40;99.90
56424;DHT22;42329;43.516;3.684;2022-11-04T05:50:27;9.50;99.90
56424;DHT22;42329;43.516;3.684;2022-11-04T05:52:56;9.50;99.90
56424;DHT22;42329;43.516;3.684;2022-11-04T05:55:25;9.50;99.90
56424;DHT22;42329;43.516;3.684;2022-11-04T05:57:53;9.50;99.90
56424;DHT22;42329;43.516;3.684;2022-11-04T06:00:22;9.60;99.90
56424;DHT22;42329;43.516;3.684;2022-11-04T06:02:49;9.60;99.90
56424;DHT22;42329;43.516;3.684;2022-11-04T06:05:17;9.60;99.90
56424;DHT22;42329;43.516;3.684;2022-11-04T06:07:44;9.60;99.90
56424;DHT22;42329;43.516;3.684;2022-11-04T06:10:11;9.70;99.90
56424;DHT22;42329;43.516;3.684;2022-11-04T06:12:40;9.60;99.90
56424;DHT22;42329;43.516;3.684;2022-11-04T06:15:09;9.60;99.90
56424;DHT22;42329;43.516;3.684;2022-11-04T06:17:36;9.60;99.90
56424;DHT22;42329;43.516;3.684;2022-11-04T06:20:04;9.60;99.90
56424;DHT22;42329;43.516;3.684;2022-11-04T06:22:32;9.60;99.90
56424;DHT22;42329;43.516;3.684;2022-11-04T06:24:59;9.60;99.90
56424;DHT22;42329;43.516;3.684;2022-11-04T06:27:26;9.60;99.90
56424;DHT22;42329;43.516;3.684;2022-11-04T06:29:55;9.60;99.90
56424;DHT22;42329;43.516;3.684;2022-11-04T06:32:23;9.60;99.90
56424;DHT22;42329;43.516;3.684;2022-11-04T06:34:50;9.60;99.90
56424;DHT22;42329;43.516;3.684;2022-11-04T06:37:17;9.50;99.90
56424;DHT22;42329;43.516;3.684;2022-11-04T06:39:44;9.50;99.90
56424;DHT22;42329;43.516;3.684;2022-11-04T06:42:12;9.60;99.90
56424;DHT22;42329;43.516;3.684;2022-11-04T06:44:39;9.70;99.90
56424;DHT22;42329;43.516;3.684;2022-11-04T06:47:09;9.70;99.90
56424;DHT22;42329;43.516;3.684;2022-11-04T06:49:36;9.80;99.90
56424;DHT22;42329;43.516;3.684;2022-11-04T06:52:03;9.90;99.90
56424;DHT22;42329;43.516;3.684;2022-11-04T06:54:31;10.00;99.90
56424;DHT22;42329;43.516;3.684;2022-11-04T06:56:58;10.00;99.90
56424;DHT22;42329;43.516;3.684;2022-11-04T06:59:25;10.10;99.90
56424;DHT22;42329;43.516;3.684;2022-11-04T07:01:52;10.20;99.90
56424;DHT22;42329;43.516;3.684;2022-11-04T07:04:21;10.30;99.90
56424;DHT22;42329;43.516;3.684;2022-11-04T07:06:48;10.30;99.90
56424;DHT22;42329;43.516;3.684;2022-11-04T07:09:16;10.40;99.90
56424;DHT22;42329;43.516;3.684;2022-11-04T07:11:44;10.50;99.90
56424;DHT22;42329;43.516;3.684;2022-11-04T07:14:11;10.60;99.90
56424;DHT22;42329;43.516;3.684;2022-11-04T07:16:39;10.70;99.90
56424;DHT22;42329;43.516;3.684;2022-11-04T07:19:07;10.80;99.90
56424;DHT22;42329;43.516;3.684;2022-11-04T07:21:36;10.90;99.90
56424;DHT22;42329;43.516;3.684;2022-11-04T07:24:03;11.00;99.90
56424;DHT22;42329;43.516;3.684;2022-11-04T07:26:32;11.10;99.90
56424;DHT22;42329;43.516;3.684;2022-11-04T07:28:59;11.10;99.90
56424;DHT22;42329;43.516;3.684;2022-11-04T07:31:27;11.20;99.90
56424;DHT22;42329;43.516;3.684;2022-11-04T07:33:54;11.30;99.90
56424;DHT22;42329;43.516;3.684;2022-11-04T07:36:22;11.40;99.90
56424;DHT22;42329;43.516;3.684;2022-11-04T07:38:53;11.50;99.90
56424;DHT22;42329;43.516;3.684;2022-11-04T07:41:21;11.60;99.90
56424;DHT22;42329;43.516;3.684;2022-11-04T07:43:49;11.60;99.90
56424;DHT22;42329;43.516;3.684;2022-11-04T07:46:17;11.70;99.90
56424;DHT22;42329;43.516;3.684;2022-11-04T07:48:45;11.80;99.90
56424;DHT22;42329;43.516;3.684;2022-11-04T07:51:14;11.90;99.90
56424;DHT22;42329;43.516;3.684;2022-11-04T07:53:42;12.00;99.90
56424;DHT22;42329;43.516;3.684;2022-11-04T07:56:12;12.00;99.90
56424;DHT22;42329;43.516;3.684;2022-11-04T07:58:39;12.00;99.90
56424;DHT22;42329;43.516;3.684;2022-11-04T08:01:09;12.00;99.90
56424;DHT22;42329;43.516;3.684;2022-11-04T08:03:40;12.00;99.90
56424;DHT22;42329;43.516;3.684;2022-11-04T08:06:10;12.10;99.90
56424;DHT22;42329;43.516;3.684;2022-11-04T08:08:38;12.10;99.90
56424;DHT22;42329;43.516;3.684;2022-11-04T08:11:08;12.20;99.90
56424;DHT22;42329;43.516;3.684;2022-11-04T08:13:37;12.20;99.90
56424;DHT22;42329;43.516;3.684;2022-11-04T08:16:06;12.30;99.90
56424;DHT22;42329;43.516;3.684;2022-11-04T08:18:35;12.40;99.90
56424;DHT22;42329;43.516;3.684;2022-11-04T08:21:02;12.60;99.90
56424;DHT22;42329;43.516;3.684;2022-11-04T08:23:30;12.70;99.90
56424;DHT22;42329;43.516;3.684;2022-11-04T08:25:59;12.80;99.90
56424;DHT22;42329;43.516;3.684;2022-11-04T08:28:26;13.00;99.90
56424;DHT22;42329;43.516;3.684;2022-11-04T08:30:57;13.10;99.90
56424;DHT22;42329;43.516;3.684;2022-11-04T08:33:25;13.20;99.90
56424;DHT22;42329;43.516;3.684;2022-11-04T08:35:55;13.30;99.90
56424;DHT22;42329;43.516;3.684;2022-11-04T08:38:22;13.30;99.90
56424;DHT22;42329;43.516;3.684;2022-11-04T08:40:50;13.30;99.90
56424;DHT22;42329;43.516;3.684;2022-11-04T08:43:18;13.30;99.90
56424;DHT22;42329;43.516;3.684;2022-11-04T08:45:45;13.20;99.90
56424;DHT22;42329;43.516;3.684;2022-11-04T08:48:14;13.20;99.90
56424;DHT22;42329;43.516;3.684;2022-11-04T08:50:42;13.10;99.90
56424;DHT22;42329;43.516;3.684;2022-11-04T08:53:10;13.10;99.90
56424;DHT22;42329;43.516;3.684;2022-11-04T08:55:38;13.00;99.90
56424;DHT22;42329;43.516;3.684;2022-11-04T08:58:05;13.00;99.90
56424;DHT22;42329;43.516;3.684;2022-11-04T09:00:33;13.00;99.90
56424;DHT22;42329;43.516;3.684;2022-11-04T09:03:01;13.10;99.90
56424;DHT22;42329;43.516;3.684;2022-11-04T09:05:30;13.20;99.90
56424;DHT22;42329;43.516;3.684;2022-11-04T09:07:58;13.20;99.90
56424;DHT22;42329;43.516;3.684;2022-11-04T09:10:26;13.20;99.90
56424;DHT22;42329;43.516;3.684;2022-11-04T09:12:53;13.20;99.90
56424;DHT22;42329;43.516;3.684;2022-11-04T09:15:21;13.10;99.90
56424;DHT22;42329;43.516;3.684;2022-11-04T09:17:48;13.20;99.90
56424;DHT22;42329;43.516;3.684;2022-11-04T09:20:15;13.10;99.90
56424;DHT22;42329;43.516;3.684;2022-11-04T09:22:44;13.10;99.90
56424;DHT22;42329;43.516;3.684;2022-11-04T09:25:15;13.00;99.90
56424;DHT22;42329;43.516;3.684;2022-11-04T09:27:42;12.90;99.90
56424;DHT22;42329;43.516;3.684;2022-11-04T09:30:10;13.00;99.90
56424;DHT22;42329;43.516;3.684;2022-11-04T09:32:38;13.00;99.90
56424;DHT22;42329;43.516;3.684;2022-11-04T09:35:05;12.90;99.90
56424;DHT22;42329;43.516;3.684;2022-11-04T09:37:33;12.90;99.90
56424;DHT22;42329;43.516;3.684;2022-11-04T09:40:02;12.80;99.90
56424;DHT22;42329;43.516;3.684;2022-11-04T09:42:40;12.80;99.90
56424;DHT22;42329;43.516;3.684;2022-11-04T09:45:13;12.80;99.90
56424;DHT22;42329;43.516;3.684;2022-11-04T09:47:45;12.80;99.90
56424;DHT22;42329;43.516;3.684;2022-11-04T09:50:20;12.80;99.90
56424;DHT22;42329;43.516;3.684;2022-11-04T09:52:53;12.80;99.90
56424;DHT22;42329;43.516;3.684;2022-11-04T09:55:28;12.80;99.90
56424;DHT22;42329;43.516;3.684;2022-11-04T09:57:57;12.90;99.90
56424;DHT22;42329;43.516;3.684;2022-11-04T10:00:25;12.90;99.90
56424;DHT22;42329;43.516;3.684;2022-11-04T10:03:03;13.00;99.90
56424;DHT22;42329;43.516;3.684;2022-11-04T10:05:52;13.00;99.90
56424;DHT22;42329;43.516;3.684;2022-11-04T10:08:47;13.10;99.90
56424;DHT22;42329;43.516;3.684;2022-11-04T10:11:27;13.30;99.90
56424;DHT22;42329;43.516;3.684;2022-11-04T10:14:22;13.40;99.90
56424;DHT22;42329;43.516;3.684;2022-11-04T10:17:02;13.40;99.90
56424;DHT22;42329;43.516;3.684;2022-11-04T10:19:39;13.40;99.90
56424;DHT22;42329;43.516;3.684;2022-11-04T10:22:16;13.40;99.80
56424;DHT22;42329;43.516;3.684;2022-11-04T10:24:52;13.50;99.90
56424;DHT22;42329;43.516;3.684;2022-11-04T10:27:25;13.60;99.90
56424;DHT22;42329;43.516;3.684;2022-11-04T10:29:55;13.60;99.90
56424;DHT22;42329;43.516;3.684;2022-11-04T10:32:27;13.60;99.90
56424;DHT22;42329;43.516;3.684;2022-11-04T10:34:59;13.50;99.90
56424;DHT22;42329;43.516;3.684;2022-11-04T10:37:28;13.50;99.90
56424;DHT22;42329;43.516;3.684;2022-11-04T10:40:01;13.40;99.90
56424;DHT22;42329;43.516;3.684;2022-11-04T10:42:33;13.40;99.90
56424;DHT22;42329;43.516;3.684;2022-11-04T10:45:01;13.30;99.90
56424;DHT22;42329;43.516;3.684;2022-11-04T10:47:34;13.30;99.90
56424;DHT22;42329;43.516;3.684;2022-11-04T10:50:29;13.30;99.90
56424;DHT22;42329;43.516;3.684;2022-11-04T10:53:12;13.30;99.90
56424;DHT22;42329;43.516;3.684;2022-11-04T10:55:46;13.30;99.90
56424;DHT22;42329;43.516;3.684;2022-11-04T10:58:22;13.30;99.90
56424;DHT22;42329;43.516;3.684;2022-11-04T11:00:50;13.30;99.90
56424;DHT22;42329;43.516;3.684;2022-11-04T11:03:30;13.30;99.50
56424;DHT22;42329;43.516;3.684;2022-11-04T11:06:13;13.30;99.80
56424;DHT22;42329;43.516;3.684;2022-11-04T11:08:42;13.40;99.90
56424;DHT22;42329;43.516;3.684;2022-11-04T11:11:10;13.50;99.90
56424;DHT22;42329;43.516;3.684;2022-11-04T11:13:43;13.60;99.90
56424;DHT22;42329;43.516;3.684;2022-11-04T11:16:12;13.70;99.90
56424;DHT22;42329;43.516;3.684;2022-11-04T11:18:43;13.80;99.90
56424;DHT22;42329;43.516;3.684;2022-11-04T11:21:12;13.80;99.90
56424;DHT22;42329;43.516;3.684;2022-11-04T11:23:42;13.90;99.90
56424;DHT22;42329;43.516;3.684;2022-11-04T11:26:13;14.00;99.90
56424;DHT22;42329;43.516;3.684;2022-11-04T11:28:58;14.00;98.60
56424;DHT22;42329;43.516;3.684;2022-11-04T11:31:34;14.10;99.40
56424;DHT22;42329;43.516;3.684;2022-11-04T11:34:04;14.20;98.40
56424;DHT22;42329;43.516;3.684;2022-11-04T11:36:33;14.20;99.80
56424;DHT22;42329;43.516;3.684;2022-11-04T11:39:04;14.20;98.50
56424;DHT22;42329;43.516;3.684;2022-11-04T11:41:33;14.20;99.30
56424;DHT22;42329;43.516;3.684;2022-11-04T11:44:06;14.30;98.30
56424;DHT22;42329;43.516;3.684;2022-11-04T11:46:49;14.20;99.60
56424;DHT22;42329;43.516;3.684;2022-11-04T11:49:25;14.20;98.90
56424;DHT22;42329;43.516;3.684;2022-11-04T11:51:54;14.20;98.90
56424;DHT22;42329;43.516;3.684;2022-11-04T11:54:26;14.20;99.40
56424;DHT22;42329;43.516;3.684;2022-11-04T11:57:00;14.30;99.80
56424;DHT22;42329;43.516;3.684;2022-11-04T11:59:40;14.30;99.90
56424;DHT22;42329;43.516;3.684;2022-11-04T12:02:22;14.40;99.10
56424;DHT22;42329;43.516;3.684;2022-11-04T12:04:51;14.50;99.90
56424;DHT22;42329;43.516;3.684;2022-11-04T12:07:26;14.50;98.80
56424;DHT22;42329;43.516;3.684;2022-11-04T12:10:04;14.50;99.00
56424;DHT22;42329;43.516;3.684;2022-11-04T12:12:47;14.60;98.50
56424;DHT22;42329;43.516;3.684;2022-11-04T12:15:28;14.70;98.50
56424;DHT22;42329;43.516;3.684;2022-11-04T12:18:05;14.80;98.30
56424;DHT22;42329;43.516;3.684;2022-11-04T12:20:47;14.90;99.10
56424;DHT22;42329;43.516;3.684;2022-11-04T12:23:21;15.00;98.80
56424;DHT22;42329;43.516;3.684;2022-11-04T12:25:59;15.00;98.40
56424;DHT22;42329;43.516;3.684;2022-11-04T12:28:39;15.10;99.40
56424;DHT22;42329;43.516;3.684;2022-11-04T12:31:18;15.20;98.90
56424;DHT22;42329;43.516;3.684;2022-11-04T12:33:56;15.30;99.10
56424;DHT22;42329;43.516;3.684;2022-11-04T12:36:39;15.20;98.60
56424;DHT22;42329;43.516;3.684;2022-11-04T12:39:20;15.10;98.20
56424;DHT22;42329;43.516;3.684;2022-11-04T12:42:01;15.10;98.70
56424;DHT22;42329;43.516;3.684;2022-11-04T12:44:33;15.10;97.30
56424;DHT22;42329;43.516;3.684;2022-11-04T12:47:14;15.20;97.70
56424;DHT22;42329;43.516;3.684;2022-11-04T12:50:08;15.30;96.80
56424;DHT22;42329;43.516;3.684;2022-11-04T12:55:37;15.40;96.80
56424;DHT22;42329;43.516;3.684;2022-11-04T12:58:27;15.50;97.30
56424;DHT22;42329;43.516;3.684;2022-11-04T13:01:01;15.50;96.40
56424;DHT22;42329;43.516;3.684;2022-11-04T13:03:43;15.50;97.00
56424;DHT22;42329;43.516;3.684;2022-11-04T13:59:03;14.80;97.80
56424;DHT22;42329;43.516;3.684;2022-11-04T14:01:32;14.80;98.00
56424;DHT22;42329;43.516;3.684;2022-11-04T14:04:25;14.80;98.30
56424;DHT22;42329;43.516;3.684;2022-11-04T14:06:58;14.80;98.50
56424;DHT22;42329;43.516;3.684;2022-11-04T14:12:31;14.90;99.10
56424;DHT22;42329;43.516;3.684;2022-11-04T14:15:15;14.80;99.00
56424;DHT22;42329;43.516;3.684;2022-11-04T14:18:01;14.80;98.90
56424;DHT22;42329;43.516;3.684;2022-11-04T14:20:34;14.80;99.00
56424;DHT22;42329;43.516;3.684;2022-11-04T14:23:04;14.80;99.40
56424;DHT22;42329;43.516;3.684;2022-11-04T14:25:35;14.80;98.70
56424;DHT22;42329;43.516;3.684;2022-11-04T14:28:23;14.80;99.30
56424;DHT22;42329;43.516;3.684;2022-11-04T14:30:54;14.80;98.40
56424;DHT22;42329;43.516;3.684;2022-11-04T14:33:37;14.80;99.10
56424;DHT22;42329;43.516;3.684;2022-11-04T14:36:26;14.80;98.60
56424;DHT22;42329;43.516;3.684;2022-11-04T14:38:57;14.90;97.80
56424;DHT22;42329;43.516;3.684;2022-11-04T14:44:18;14.90;96.90
56424;DHT22;42329;43.516;3.684;2022-11-04T14:46:48;14.90;97.30
56424;DHT22;42329;43.516;3.684;2022-11-04T14:49:41;14.90;97.00
56424;DHT22;42329;43.516;3.684;2022-11-04T14:52:20;14.90;97.00
56424;DHT22;42329;43.516;3.684;2022-11-04T14:54:49;14.80;96.40
56424;DHT22;42329;43.516;3.684;2022-11-04T14:57:20;14.70;96.60
56424;DHT22;42329;43.516;3.684;2022-11-04T14:59:49;14.60;96.40
56424;DHT22;42329;43.516;3.684;2022-11-04T15:02:21;14.60;97.10
56424;DHT22;42329;43.516;3.684;2022-11-04T15:04:55;14.60;96.80
56424;DHT22;42329;43.516;3.684;2022-11-04T15:07:32;14.70;97.20
56424;DHT22;42329;43.516;3.684;2022-11-04T15:10:00;14.70;97.20
56424;DHT22;42329;43.516;3.684;2022-11-04T15:12:29;14.60;96.70
56424;DHT22;42329;43.516;3.684;2022-11-04T15:15:32;14.70;96.90
56424;DHT22;42329;43.516;3.684;2022-11-04T15:18:04;14.70;97.80
56424;DHT22;42329;43.516;3.684;2022-11-04T15:20:33;14.60;97.40
56424;DHT22;42329;43.516;3.684;2022-11-04T15:23:08;14.60;98.10
56424;DHT22;42329;43.516;3.684;2022-11-04T15:25:44;14.60;97.10
56424;DHT22;42329;43.516;3.684;2022-11-04T15:28:17;14.50;97.10
56424;DHT22;42329;43.516;3.684;2022-11-04T15:30:59;14.50;96.90
56424;DHT22;42329;43.516;3.684;2022-11-04T15:33:31;14.50;97.00
56424;DHT22;42329;43.516;3.684;2022-11-04T15:36:02;14.50;97.20
56424;DHT22;42329;43.516;3.684;2022-11-04T15:38:33;14.50;97.20
56424;DHT22;42329;43.516;3.684;2022-11-04T15:41:03;14.40;96.60
56424;DHT22;42329;43.516;3.684;2022-11-04T15:43:43;14.40;97.50
56424;DHT22;42329;43.516;3.684;2022-11-04T15:46:18;14.40;96.80
56424;DHT22;42329;43.516;3.684;2022-11-04T15:49:03;14.40;97.30
56424;DHT22;42329;43.516;3.684;2022-11-04T15:51:35;14.40;97.50
56424;DHT22;42329;43.516;3.684;2022-11-04T15:54:06;14.30;97.60
56424;DHT22;42329;43.516;3.684;2022-11-04T15:56:45;14.30;98.10
56424;DHT22;42329;43.516;3.684;2022-11-04T15:59:20;14.30;97.60
56424;DHT22;42329;43.516;3.684;2022-11-04T16:01:50;14.20;97.80
56424;DHT22;42329;43.516;3.684;2022-11-04T16:04:20;14.20;98.00
56424;DHT22;42329;43.516;3.684;2022-11-04T16:07:03;14.10;97.80
56424;DHT22;42329;43.516;3.684;2022-11-04T16:09:44;14.10;98.20
56424;DHT22;42329;43.516;3.684;2022-11-04T16:12:14;14.00;97.70
56424;DHT22;42329;43.516;3.684;2022-11-04T16:14:49;13.90;98.10
56424;DHT22;42329;43.516;3.684;2022-11-04T16:17:17;13.90;97.80
56424;DHT22;42329;43.516;3.684;2022-11-04T16:19:46;13.90;98.30
56424;DHT22;42329;43.516;3.684;2022-11-04T16:22:19;13.90;98.20
56424;DHT22;42329;43.516;3.684;2022-11-04T16:24:50;13.80;97.90
56424;DHT22;42329;43.516;3.684;2022-11-04T16:27:19;13.80;98.10
56424;DHT22;42329;43.516;3.684;2022-11-04T16:30:00;13.80;97.70
56424;DHT22;42329;43.516;3.684;2022-11-04T16:32:29;13.70;98.00
56424;DHT22;42329;43.516;3.684;2022-11-04T16:35:16;13.70;98.10
56424;DHT22;42329;43.516;3.684;2022-11-04T16:37:44;13.70;98.30
56424;DHT22;42329;43.516;3.684;2022-11-04T16:40:13;13.70;98.10
56424;DHT22;42329;43.516;3.684;2022-11-04T16:42:40;13.70;98.40
56424;DHT22;42329;43.516;3.684;2022-11-04T16:45:24;13.60;98.30
56424;DHT22;42329;43.516;3.684;2022-11-04T16:47:52;13.60;98.10
56424;DHT22;42329;43.516;3.684;2022-11-04T16:50:20;13.60;98.60
56424;DHT22;42329;43.516;3.684;2022-11-04T16:52:49;13.60;98.50
56424;DHT22;42329;43.516;3.684;2022-11-04T16:55:19;13.60;98.90
56424;DHT22;42329;43.516;3.684;2022-11-04T16:57:48;13.50;98.60
56424;DHT22;42329;43.516;3.684;2022-11-04T17:00:19;13.50;98.50
56424;DHT22;42329;43.516;3.684;2022-11-04T17:02:47;13.50;98.80
56424;DHT22;42329;43.516;3.684;2022-11-04T17:10:14;13.30;98.90
56424;DHT22;42329;43.516;3.684;2022-11-04T17:12:43;13.30;99.40
56424;DHT22;42329;43.516;3.684;2022-11-04T17:15:12;13.30;99.40